createdAt,value
2023-02-22T00:04:06.188Z,10.20
2023-02-22T00:09:10.248Z,10.22
2023-02-22T00:14:12.496Z,10.08
2023-02-22T00:19:14.177Z,10.00
2023-02-22T00:24:23.123Z,10.04
2023-02-22T00:29:25.198Z,10.15
2023-02-22T00:34:26.896Z,10.21
2023-02-22T00:39:30.246Z,10.23
2023-02-22T00:44:32.982Z,10.21
2023-02-22T00:49:35.022Z,10.23
2023-02-22T00:54:38.034Z,10.22
2023-02-22T00:59:39.709Z,10.12
2023-02-22T01:04:41.465Z,10.19
2023-02-22T01:09:44.540Z,10.15
2023-02-22T01:14:46.205Z,10.22
2023-02-22T01:19:47.896Z,10.25
2023-02-22T01:24:51.039Z,10.16
2023-02-22T01:29:52.787Z,10.14
2023-02-22T01:34:54.512Z,10.15
2023-02-22T01:39:57.533Z,10.15
2023-02-22T01:45:37.060Z,10.12
2023-02-22T01:50:40.921Z,10.10
2023-02-22T01:55:44.007Z,10.01
2023-02-22T02:00:45.751Z,10.09
2023-02-22T02:05:48.011Z,9.95
2023-02-22T02:10:51.050Z,9.88
2023-02-22T02:15:54.967Z,9.81
2023-02-22T02:21:10.768Z,9.69
2023-02-22T02:26:44.765Z,9.69
2023-02-22T02:32:16.385Z,9.68
2023-02-22T02:37:21.955Z,9.69
2023-02-22T02:42:25.414Z,9.58
2023-02-22T02:47:29.022Z,9.48
2023-02-22T02:52:31.284Z,9.46
2023-02-22T02:57:33.016Z,9.60
2023-02-22T03:02:41.762Z,9.59
2023-02-22T03:07:46.710Z,9.72
2023-02-22T03:12:54.873Z,9.65
2023-02-22T03:18:02.157Z,9.76
2023-02-22T03:23:05.079Z,9.63
2023-02-22T03:28:11.384Z,9.42
2023-02-22T03:33:15.436Z,9.28
2023-02-22T03:38:19.145Z,9.30
2023-02-22T03:43:24.890Z,9.36
2023-02-22T03:48:36.561Z,9.47
2023-02-22T03:53:39.782Z,9.61
2023-02-22T03:58:47.914Z,9.64
2023-02-22T04:03:51.045Z,9.60
2023-02-22T04:08:52.944Z,9.61
2023-02-22T04:13:54.832Z,9.62
2023-02-22T04:18:58.208Z,9.65
2023-02-22T04:24:00.007Z,9.58
2023-02-22T04:29:01.902Z,9.48
2023-02-22T04:34:11.186Z,9.46
2023-02-22T04:39:15.329Z,9.36
2023-02-22T04:44:19.153Z,9.38
2023-02-22T04:49:22.257Z,9.33
2023-02-22T04:54:25.554Z,9.33
2023-02-22T04:59:27.278Z,9.32
2023-02-22T05:04:36.012Z,9.40
2023-02-22T05:09:37.757Z,9.33
2023-02-22T05:14:39.425Z,9.22
2023-02-22T05:19:42.535Z,8.94
2023-02-22T05:24:44.206Z,8.83
2023-02-22T05:29:46.108Z,8.58
2023-02-22T05:34:49.145Z,8.63
2023-02-22T05:39:51.009Z,8.67
2023-02-22T05:44:53.198Z,8.81
2023-02-22T05:49:56.497Z,8.73
2023-02-22T05:54:58.694Z,8.67
2023-02-22T06:00:00.435Z,8.50
2023-02-22T06:05:03.584Z,8.39
2023-02-22T06:10:05.680Z,8.33
2023-02-22T06:15:07.717Z,8.22
2023-02-22T06:20:13.580Z,8.12
2023-02-22T06:25:15.867Z,8.06
2023-02-22T06:30:18.404Z,7.97
2023-02-22T06:35:21.557Z,7.88
2023-02-22T06:40:23.397Z,7.99
2023-02-22T06:45:25.149Z,8.12
2023-02-22T06:50:29.140Z,8.21
2023-02-22T06:55:32.244Z,8.41
2023-02-22T07:00:33.980Z,8.56
2023-02-22T07:05:38.175Z,8.58
2023-02-22T07:10:40.035Z,8.92
2023-02-22T07:15:41.924Z,8.97
2023-02-22T07:20:44.975Z,8.99
2023-02-22T07:25:46.624Z,9.02
2023-02-22T07:30:48.263Z,9.07
2023-02-22T07:35:51.509Z,9.12
2023-02-22T07:40:53.421Z,9.15
2023-02-22T07:45:56.063Z,9.33
2023-02-22T07:50:59.265Z,9.38
2023-02-22T07:56:01.682Z,9.73
2023-02-22T08:01:03.681Z,10.91
2023-02-22T08:06:07.246Z,12.18
2023-02-22T08:11:09.061Z,12.16
2023-02-22T08:16:10.783Z,11.20
2023-02-22T08:21:13.805Z,11.16
2023-02-22T08:26:17.710Z,11.22
2023-02-22T08:31:19.708Z,11.49
2023-02-22T08:36:23.023Z,11.56
2023-02-22T08:41:24.709Z,11.82
2023-02-22T08:46:26.354Z,12.07
2023-02-22T08:51:29.374Z,14.53
2023-02-22T08:56:31.147Z,14.71
2023-02-22T09:01:35.280Z,13.61
2023-02-22T09:06:40.106Z,12.87
2023-02-22T09:11:41.816Z,12.44
2023-02-22T09:16:44.011Z,12.61
2023-02-22T09:21:52.010Z,12.98
2023-02-22T09:26:54.098Z,13.66
2023-02-22T09:31:56.062Z,14.62
2023-02-22T09:36:59.178Z,17.00
2023-02-22T09:42:03.297Z,20.17
2023-02-22T09:47:05.246Z,21.16
2023-02-22T09:52:14.413Z,21.72
2023-02-22T09:57:17.483Z,22.97
2023-02-22T10:02:24.498Z,24.42
2023-02-22T10:07:29.290Z,24.19
2023-02-22T10:12:33.783Z,24.54
2023-02-22T10:17:36.693Z,24.79
2023-02-22T10:22:44.692Z,24.95
2023-02-22T10:27:48.768Z,24.35
2023-02-22T10:32:52.014Z,24.54
2023-02-22T10:37:56.413Z,23.92
2023-02-22T10:43:01.040Z,23.23
2023-02-22T10:48:08.509Z,23.72
2023-02-22T10:53:11.905Z,23.09
2023-02-22T10:58:13.592Z,23.38
2023-02-22T11:03:17.813Z,22.94
2023-02-22T11:08:25.937Z,22.33
2023-02-22T11:13:29.239Z,21.54
2023-02-22T11:18:32.788Z,20.49
2023-02-22T11:23:35.896Z,19.43
2023-02-22T11:28:37.579Z,18.30
2023-02-22T11:33:39.271Z,17.78
2023-02-22T11:38:53.219Z,17.58
2023-02-22T11:43:54.924Z,17.40
2023-02-22T11:48:58.020Z,17.36
2023-02-22T11:54:25.420Z,16.94
2023-02-22T11:59:31.573Z,16.90
2023-02-22T12:05:01.893Z,16.53
2023-02-22T12:10:11.700Z,16.31
2023-02-22T12:15:14.949Z,16.24
2023-02-22T12:20:24.787Z,16.44
2023-02-22T12:25:29.419Z,16.50
2023-02-22T12:30:31.914Z,16.39
2023-02-22T12:35:37.147Z,16.47
2023-02-22T12:40:44.996Z,16.52
2023-02-22T12:45:48.636Z,16.59
2023-02-22T12:50:53.345Z,16.53
2023-02-22T12:55:58.797Z,16.68
2023-02-22T13:01:01.897Z,16.65
2023-02-22T13:06:24.718Z,16.89
2023-02-22T13:11:29.981Z,16.74
2023-02-22T13:16:35.850Z,16.59
2023-02-22T13:21:42.321Z,16.56
2023-02-22T13:26:47.326Z,16.57
2023-02-22T13:31:59.812Z,16.63
2023-02-22T13:37:10.571Z,16.58
2023-02-22T13:42:26.686Z,16.53
2023-02-22T13:47:40.761Z,16.50
2023-02-22T13:52:42.471Z,16.43
2023-02-22T13:57:48.597Z,16.52
2023-02-22T14:02:58.320Z,16.22
2023-02-22T14:07:59.981Z,16.03
2023-02-22T14:13:05.338Z,15.89
2023-02-22T14:18:15.350Z,15.81
2023-02-22T14:23:35.352Z,15.74
2023-02-22T14:28:52.362Z,15.64
2023-02-22T14:33:57.064Z,15.43
2023-02-22T14:39:10.180Z,15.43
2023-02-22T14:44:13.658Z,15.40
2023-02-22T14:49:18.805Z,15.47
2023-02-22T14:54:27.252Z,15.30
2023-02-22T14:59:30.719Z,15.29
2023-02-22T15:04:32.590Z,15.19
2023-02-22T15:09:37.416Z,15.23
2023-02-22T15:14:41.134Z,15.08
2023-02-22T15:19:42.901Z,14.93
2023-02-22T15:24:44.851Z,14.78
2023-02-22T15:29:47.872Z,14.78
2023-02-22T15:34:49.564Z,14.61
2023-02-22T15:39:59.067Z,14.58
2023-02-22T15:45:02.090Z,14.51
2023-02-22T15:50:21.014Z,14.36
2023-02-22T15:55:25.773Z,14.23
2023-02-22T16:00:36.216Z,13.98
2023-02-22T16:05:39.379Z,13.94
2023-02-22T16:10:41.292Z,13.79
2023-02-22T16:15:47.592Z,13.61
2023-02-22T16:20:57.896Z,13.52
2023-02-22T16:26:23.001Z,13.50
2023-02-22T16:31:26.897Z,13.36
2023-02-22T16:36:37.807Z,13.23
2023-02-22T16:41:39.493Z,13.14
2023-02-22T16:46:42.578Z,13.10
2023-02-22T16:51:45.724Z,12.97
2023-02-22T16:56:47.409Z,12.82
2023-02-22T17:01:50.438Z,12.86
2023-02-22T17:06:52.301Z,12.83
2023-02-22T17:11:54.221Z,12.83
2023-02-22T17:16:59.301Z,12.41
2023-02-22T17:22:05.854Z,12.25
2023-02-22T17:27:07.558Z,12.19
2023-02-22T17:32:10.633Z,12.02
2023-02-22T17:37:12.406Z,11.90
2023-02-22T17:42:15.465Z,11.83
2023-02-22T17:47:18.542Z,11.79
2023-02-22T17:52:20.250Z,11.62
2023-02-22T17:57:21.941Z,11.64
2023-02-22T18:02:25.078Z,11.60
2023-02-22T18:07:26.847Z,11.57
2023-02-22T18:12:29.898Z,11.56
2023-02-22T18:17:32.880Z,11.52
2023-02-22T18:22:34.612Z,11.60
2023-02-22T18:27:36.430Z,11.62
2023-02-22T18:32:39.614Z,11.60
2023-02-22T18:37:41.376Z,11.62
2023-02-22T18:42:43.064Z,11.52
2023-02-22T18:47:46.124Z,11.52
2023-02-22T18:52:47.812Z,11.46
2023-02-22T18:57:52.754Z,11.44
2023-02-22T19:02:57.668Z,11.38
2023-02-22T19:08:00.775Z,11.33
2023-02-22T19:13:02.489Z,11.29
2023-02-22T19:18:05.712Z,11.20
2023-02-22T19:23:10.203Z,11.15
2023-02-22T19:28:11.936Z,11.10
2023-02-22T19:33:14.930Z,11.01
2023-02-22T19:38:16.692Z,10.91
2023-02-22T19:43:19.395Z,10.87
2023-02-22T19:48:22.721Z,10.83
2023-02-22T19:53:24.473Z,10.84
2023-02-22T19:58:26.109Z,10.81
2023-02-22T20:03:30.782Z,10.73
2023-02-22T20:08:32.509Z,10.68
2023-02-22T20:13:34.191Z,10.66
2023-02-22T20:18:37.212Z,10.67
2023-02-22T20:23:44.215Z,10.69
2023-02-22T20:28:46.074Z,10.67
2023-02-22T20:33:53.135Z,10.64
2023-02-22T20:38:55.588Z,10.57
2023-02-22T20:43:57.967Z,10.48
2023-02-22T20:49:01.182Z,10.43
2023-02-22T20:54:02.993Z,10.36
2023-02-22T20:59:04.723Z,10.30
2023-02-22T21:04:09.972Z,10.27
2023-02-22T21:09:12.459Z,10.14
2023-02-22T21:14:18.465Z,10.13
2023-02-22T21:19:27.281Z,10.00
2023-02-22T21:24:29.316Z,9.92
2023-02-22T21:29:34.347Z,9.92
2023-02-22T21:34:37.980Z,9.82
2023-02-22T21:39:39.657Z,9.83
2023-02-22T21:44:41.343Z,9.80
2023-02-22T21:49:44.396Z,9.80
2023-02-22T21:54:46.076Z,9.80
2023-02-22T21:59:48.433Z,9.74
2023-02-22T22:04:51.560Z,9.58
2023-02-22T22:09:56.841Z,9.60
2023-02-22T22:14:58.612Z,9.66
2023-02-22T22:20:03.943Z,9.64
2023-02-22T22:25:07.267Z,9.56
2023-02-22T22:30:11.498Z,9.48
2023-02-22T22:35:14.649Z,9.45
2023-02-22T22:40:16.594Z,9.37
2023-02-22T22:45:18.432Z,9.33
2023-02-22T22:50:26.387Z,9.25
2023-02-22T22:55:28.094Z,9.26
2023-02-22T23:00:31.967Z,9.22
2023-02-22T23:05:37.741Z,9.28
2023-02-22T23:10:40.024Z,9.21
2023-02-22T23:15:42.700Z,9.35
2023-02-22T23:20:45.767Z,9.28
2023-02-22T23:25:50.565Z,9.43
2023-02-22T23:30:52.290Z,9.40
2023-02-22T23:35:55.282Z,9.44
2023-02-22T23:41:01.220Z,9.39
2023-02-22T23:46:03.508Z,9.40
2023-02-22T23:51:09.759Z,9.29
2023-02-22T23:56:13.080Z,9.18
